Alden Manor, NY

10:21 AM EDT on March 28, 2015 (GMT -0400)
Just West of Town Hall | | Change Station
CLOSE
Current Station
Personal Weather Station
Location: Floral Park, NY
Elevation: 78 ft
Nearby Weather Stations

Elev 78 ft 40.72 °N, 73.71 °W | Updated 1 second ago

Overcast
Overcast
35.1 °F
Feels Like 35 °F
N
2.7
Wind Variable Wind from North
Gusts 4.9 mph

Today
High -- | Low -- °F
--% Chance of Precip.
Yesterday
High -- | Low -- °F
Precip. -- in
6:45 AM 7:15 PM
Waxing Gibbous, 62% visible
Pressure 29.82 in
Visibility 10.0 miles
Clouds Scattered Clouds 3700 ft
Mostly Cloudy 4900 ft
Mostly Cloudy 14000 ft
Windchill 35 °F
Dew Point 33 °F
Humidity 94%
Rainfall 0.00 in
Snow Depth Not available.
UV 2 out of 12
Pollen 6.10 out of 12
Air Quality Not available.
Flu Activity Not available.
METAR KJFK 281351Z 33016G25KT 10SM SCT037 BKN049 BKN140 03/M06 A2982 RMK AO2 SNE1258 SLP097 P0000 T00281061 $

More Conditions Fewer Conditions

Pressure 29.82 in
Visibility 10.0 miles
Clouds Scattered Clouds 3700 ft
Mostly Cloudy 4900 ft
Mostly Cloudy 14000 ft
Windchill 35 °F
Dew Point 33 °F
Humidity 94%
Rainfall 0.00 in
Snow Depth Not available.
UV 2 out of 12
Pollen 6.10 out of 12
Air Quality Not available.
Flu Activity Not available.
METAR KJFK 281351Z 33016G25KT 10SM SCT037 BKN049 BKN140 03/M06 A2982 RMK AO2 SNE1258 SLP097 P0000 T00281061 $

More Conditions Fewer Conditions

10-Day Weather Forecast

Almanac

Astronomy

Mar. 28, 2015 Rise Set
Actual Time
Civil Twilight
Nautical Twilight
Astronomical Twilight
Moon
Length of Visible Light
Length of Day
Tomorrow will be .
, % of the Moon is Illuminated

Today's Extremes

State Highs State Lows

Community

WunderPhotos

Upload Photos

1,808,984 photos uploaded!

WunderBlogs® & News

Nearby

Air Quality

  Air Quality AQ Index Pollutant
Not available.

Snow Depth

Station Depth Elevation

Earthquake Activity

City Distance Mag. Time & Date
Minimum magnitude displayed is 2.5.

Coastal Water Temperatures

Place Temperature

Stations

Nearby Weather Stations

Station Location Temp. Windchill Dew Point Humidity Wind Precip. Elev Updated Type